createdAt,value
2016-12-18T00:00:36.256Z,4.47
2016-12-18T00:01:36.246Z,4.5
2016-12-18T00:02:36.231Z,4.5
2016-12-18T00:03:36.218Z,4.51
2016-12-18T00:04:36.208Z,4.5
2016-12-18T00:05:36.192Z,4.55
2016-12-18T00:06:36.180Z,4.51
2016-12-18T00:07:36.166Z,4.51
2016-12-18T00:08:36.157Z,4.51
2016-12-18T00:09:36.141Z,4.5
2016-12-18T00:10:36.130Z,4.5
2016-12-18T00:11:36.117Z,4.52
2016-12-18T00:12:36.105Z,4.48
2016-12-18T00:13:36.091Z,4.41
2016-12-18T00:14:36.077Z,4.45
2016-12-18T00:15:36.063Z,4.4
2016-12-18T00:16:36.052Z,4.45
2016-12-18T00:17:36.043Z,4.41
2016-12-18T00:18:36.025Z,4.37
2016-12-18T00:19:36.013Z,4.41
2016-12-18T00:20:35.999Z,4.42
2016-12-18T00:21:35.989Z,4.34
2016-12-18T00:22:35.983Z,4.36
2016-12-18T00:23:36.267Z,4.36
2016-12-18T00:24:35.953Z,4.37
2016-12-18T00:25:35.940Z,4.47
2016-12-18T00:26:35.924Z,4.44
2016-12-18T00:27:35.909Z,4.54
2016-12-18T00:28:35.900Z,4.44
2016-12-18T00:29:35.885Z,4.58
2016-12-18T00:30:35.873Z,4.51
2016-12-18T00:31:35.861Z,4.54
2016-12-18T00:32:35.855Z,4.52
2016-12-18T00:33:35.834Z,4.5
2016-12-18T00:34:35.822Z,4.36
2016-12-18T00:35:35.810Z,4.41
2016-12-18T00:36:35.797Z,4.44
2016-12-18T00:37:35.786Z,4.4
2016-12-18T00:38:35.775Z,4.4
2016-12-18T00:39:35.761Z,4.41
2016-12-18T00:40:35.749Z,4.34
2016-12-18T00:41:35.733Z,4.47
2016-12-18T00:42:35.717Z,4.37
2016-12-18T00:43:36.019Z,4.51
2016-12-18T00:44:35.695Z,4.33
2016-12-18T00:45:35.686Z,4.4
2016-12-18T00:46:35.669Z,4.51
2016-12-18T00:47:35.655Z,4.4
2016-12-18T00:48:35.644Z,4.48
2016-12-18T00:49:35.630Z,4.47
2016-12-18T00:50:35.621Z,4.48
2016-12-18T00:51:35.633Z,4.45
2016-12-18T00:52:35.592Z,4.5
2016-12-18T00:53:35.585Z,4.52
2016-12-18T00:54:35.567Z,4.55
2016-12-18T00:55:35.553Z,4.65
2016-12-18T00:56:35.544Z,4.6
2016-12-18T00:57:35.529Z,4.6
2016-12-18T00:58:35.517Z,4.6
2016-12-18T00:59:35.505Z,4.6
2016-12-18T01:00:35.488Z,4.67
2016-12-18T01:01:35.481Z,4.65
2016-12-18T01:02:35.464Z,4.63
2016-12-18T01:03:35.452Z,4.69
2016-12-18T01:04:35.439Z,4.75
2016-12-18T01:05:35.432Z,4.66
2016-12-18T01:06:35.420Z,4.72
2016-12-18T01:07:35.405Z,4.65
2016-12-18T01:08:35.388Z,4.7
2016-12-18T01:09:35.379Z,4.72
2016-12-18T01:10:35.366Z,4.62
2016-12-18T01:11:35.354Z,4.59
2016-12-18T01:12:35.341Z,4.67
2016-12-18T01:13:35.325Z,4.66
2016-12-18T01:14:35.313Z,4.69
2016-12-18T01:15:35.302Z,4.6
2016-12-18T01:16:35.288Z,4.52
2016-12-18T01:17:35.274Z,4.62
2016-12-18T01:18:35.261Z,4.62
2016-12-18T01:19:35.253Z,4.62
2016-12-18T01:20:35.241Z,4.65
2016-12-18T01:21:35.222Z,4.66
2016-12-18T01:22:35.213Z,4.65
2016-12-18T01:23:35.200Z,4.66
2016-12-18T01:24:35.186Z,4.62
2016-12-18T01:25:35.174Z,4.59
2016-12-18T01:26:35.163Z,4.66
2016-12-18T01:27:35.149Z,4.7
2016-12-18T01:28:35.437Z,4.67
2016-12-18T01:29:35.121Z,4.65
2016-12-18T01:30:35.111Z,4.66
2016-12-18T01:31:35.098Z,4.7
2016-12-18T01:32:35.087Z,4.69
2016-12-18T01:33:35.075Z,4.7
2016-12-18T01:34:35.063Z,4.66
2016-12-18T01:35:35.050Z,4.63
2016-12-18T01:36:35.340Z,4.66
2016-12-18T01:37:35.022Z,4.65
2016-12-18T01:38:35.008Z,4.77
2016-12-18T01:39:34.996Z,4.67
2016-12-18T01:40:34.990Z,4.63
2016-12-18T01:41:34.973Z,4.63
2016-12-18T01:42:35.261Z,4.67
2016-12-18T01:43:34.949Z,4.78
2016-12-18T01:44:34.937Z,4.8
2016-12-18T01:45:34.920Z,4.82
2016-12-18T01:46:34.913Z,4.75
2016-12-18T01:47:34.896Z,4.72
2016-12-18T01:48:34.883Z,4.72
2016-12-18T01:49:34.873Z,4.66
2016-12-18T01:50:34.856Z,4.67
2016-12-18T01:51:34.845Z,4.66
2016-12-18T01:52:34.833Z,4.66
2016-12-18T01:53:34.830Z,4.72
2016-12-18T01:54:34.813Z,4.72
2016-12-18T01:55:34.794Z,4.67
2016-12-18T01:56:34.787Z,4.67
2016-12-18T01:57:34.775Z,4.7
2016-12-18T01:58:34.759Z,4.66
2016-12-18T01:59:34.745Z,4.69
2016-12-18T02:00:34.737Z,4.77
2016-12-18T02:01:34.721Z,4.8
2016-12-18T02:02:34.711Z,4.84
2016-12-18T02:03:34.696Z,4.82
2016-12-18T02:04:34.686Z,4.8
2016-12-18T02:05:34.673Z,4.84
2016-12-18T02:06:34.660Z,4.82
2016-12-18T02:07:34.647Z,4.77
2016-12-18T02:08:34.638Z,4.65
2016-12-18T02:09:34.622Z,4.72
2016-12-18T02:10:34.617Z,4.7
2016-12-18T02:11:34.596Z,4.8
2016-12-18T02:12:34.585Z,4.72
2016-12-18T02:13:34.574Z,4.67
2016-12-18T02:14:34.558Z,4.67
2016-12-18T02:15:34.549Z,4.73
2016-12-18T02:16:34.534Z,4.84
2016-12-18T02:17:34.521Z,4.75
2016-12-18T02:18:34.508Z,4.77
2016-12-18T02:19:34.496Z,4.88
2016-12-18T02:20:34.486Z,4.84
2016-12-18T02:21:34.474Z,4.92
2016-12-18T02:22:34.458Z,4.92
2016-12-18T02:23:34.447Z,4.97
2016-12-18T02:24:34.437Z,4.96
2016-12-18T02:25:34.422Z,5.02
2016-12-18T02:26:34.409Z,5.02
2016-12-18T02:27:34.397Z,5.03
2016-12-18T02:28:34.385Z,5.09
2016-12-18T02:29:34.374Z,5.09
2016-12-18T02:30:34.361Z,5.1
2016-12-18T02:31:34.350Z,5.07
2016-12-18T02:32:34.335Z,5.13
2016-12-18T02:33:34.629Z,5.18
2016-12-18T02:34:34.312Z,5.22
2016-12-18T02:35:34.302Z,5.24
2016-12-18T02:36:34.289Z,5.28
2016-12-18T02:37:34.272Z,5.27
2016-12-18T02:38:34.262Z,5.25
2016-12-18T02:39:34.250Z,5.24
2016-12-18T02:40:34.241Z,5.25
2016-12-18T02:41:34.531Z,5.25
2016-12-18T02:42:34.217Z,5.3
2016-12-18T02:43:34.202Z,5.24
2016-12-18T02:44:34.189Z,5.2
2016-12-18T02:45:34.178Z,5.21
2016-12-18T02:46:34.166Z,5.25
2016-12-18T02:47:34.155Z,5.13
2016-12-18T02:48:34.141Z,5.13
2016-12-18T02:49:34.127Z,5.21
2016-12-18T02:50:34.117Z,5.17
2016-12-18T02:51:34.103Z,5.17
2016-12-18T02:52:34.093Z,5.02
2016-12-18T02:53:34.077Z,5.07
2016-12-18T02:54:34.375Z,4.99
2016-12-18T02:55:34.058Z,5.06
2016-12-18T02:56:34.040Z,5.03
2016-12-18T02:57:34.032Z,5.06
2016-12-18T02:58:34.021Z,5.07
2016-12-18T02:59:34.005Z,5.17
2016-12-18T03:00:33.999Z,5.02
2016-12-18T03:01:33.980Z,5.12
2016-12-18T03:02:33.969Z,5.07
2016-12-18T03:03:33.956Z,5.07
2016-12-18T03:04:33.945Z,5.06
2016-12-18T03:05:33.932Z,5.02
2016-12-18T03:06:33.919Z,5.13
2016-12-18T03:07:33.908Z,5.06
2016-12-18T03:08:33.896Z,5.04
2016-12-18T03:09:33.883Z,5.06
2016-12-18T03:10:33.871Z,5.03
2016-12-18T03:11:33.858Z,5.15
2016-12-18T03:12:33.846Z,5.13
2016-12-18T03:13:34.141Z,5.13
2016-12-18T03:14:33.821Z,5.09
2016-12-18T03:15:33.814Z,5.13
2016-12-18T03:16:33.797Z,5.07
2016-12-18T03:17:33.789Z,5.13
2016-12-18T03:18:33.773Z,5.17
2016-12-18T03:19:33.762Z,5.13
2016-12-18T03:20:33.749Z,5.17
2016-12-18T03:21:33.737Z,5.17
2016-12-18T03:22:33.722Z,5.17
2016-12-18T03:23:33.711Z,5.21
2016-12-18T03:24:33.730Z,5.17
2016-12-18T03:25:33.687Z,5.24
2016-12-18T03:26:33.675Z,5.22
2016-12-18T03:27:33.664Z,5.27
2016-12-18T03:28:33.649Z,5.24
2016-12-18T03:29:33.641Z,5.27
2016-12-18T03:30:33.629Z,5.21
2016-12-18T03:31:33.615Z,5.35
2016-12-18T03:32:33.603Z,5.28
2016-12-18T03:33:33.590Z,5.43
2016-12-18T03:34:33.579Z,5.4
2016-12-18T03:35:33.569Z,5.38
2016-12-18T03:36:33.586Z,5.36
2016-12-18T03:37:33.541Z,5.54
2016-12-18T03:38:33.532Z,5.58
2016-12-18T03:39:33.518Z,5.48
2016-12-18T03:40:33.505Z,5.57
2016-12-18T03:41:33.495Z,5.54
2016-12-18T03:42:33.484Z,5.56
2016-12-18T03:43:33.470Z,5.56
2016-12-18T03:44:33.458Z,5.54
2016-12-18T03:45:33.756Z,5.45
2016-12-18T03:46:33.435Z,5.45
2016-12-18T03:47:33.423Z,5.54
2016-12-18T03:48:33.409Z,5.42
2016-12-18T03:49:33.398Z,5.54
2016-12-18T03:50:33.387Z,5.53
2016-12-18T03:51:33.373Z,5.49
2016-12-18T03:52:33.363Z,5.45
2016-12-18T03:53:33.349Z,5.4
2016-12-18T03:54:33.336Z,5.35
2016-12-18T03:55:33.323Z,5.39
2016-12-18T03:56:33.315Z,5.39
2016-12-18T03:57:33.300Z,5.42
2016-12-18T03:58:33.288Z,5.42
2016-12-18T03:59:33.278Z,5.43
2016-12-18T04:00:33.264Z,5.45
2016-12-18T04:01:33.251Z,5.36
2016-12-18T04:02:33.241Z,5.36
2016-12-18T04:03:33.228Z,5.35
2016-12-18T04:04:33.216Z,5.33
2016-12-18T04:05:33.207Z,5.36
2016-12-18T04:06:33.191Z,5.4
2016-12-18T04:07:33.181Z,5.3
2016-12-18T04:08:33.167Z,5.31
2016-12-18T04:09:33.158Z,5.36
2016-12-18T04:10:33.143Z,5.28
2016-12-18T04:11:33.132Z,5.3
2016-12-18T04:12:33.120Z,5.33
2016-12-18T04:13:33.111Z,5.36
2016-12-18T04:14:33.097Z,5.31
2016-12-18T04:15:33.088Z,5.28
2016-12-18T04:16:33.069Z,5.31
2016-12-18T04:17:33.064Z,5.28
2016-12-18T04:18:33.047Z,5.35
2016-12-18T04:19:33.037Z,5.42
2016-12-18T04:20:33.030Z,5.45
2016-12-18T04:21:33.009Z,5.33
2016-12-18T04:22:32.999Z,5.4
2016-12-18T04:23:32.987Z,5.42
2016-12-18T04:24:32.976Z,5.4
2016-12-18T04:25:32.962Z,5.39
2016-12-18T04:26:32.950Z,5.48
2016-12-18T04:27:32.937Z,5.4
2016-12-18T04:28:32.929Z,5.45
2016-12-18T04:29:32.915Z,5.4
2016-12-18T04:30:32.904Z,5.45
2016-12-18T04:31:32.888Z,5.4
2016-12-18T04:32:32.882Z,5.33
2016-12-18T04:33:32.867Z,5.33
2016-12-18T04:34:32.854Z,5.3
2016-12-18T04:35:32.843Z,5.31
2016-12-18T04:36:32.830Z,5.21
2016-12-18T04:37:32.818Z,5.31
2016-12-18T04:38:32.807Z,5.36
2016-12-18T04:39:32.795Z,5.24
2016-12-18T04:40:32.784Z,5.27
2016-12-18T04:41:32.773Z,5.35
2016-12-18T04:42:32.761Z,5.35
2016-12-18T04:43:32.745Z,5.33
2016-12-18T04:44:32.736Z,5.22
2016-12-18T04:45:32.719Z,5.25
2016-12-18T04:46:32.709Z,5.31
2016-12-18T04:47:32.698Z,5.3
2016-12-18T04:48:32.683Z,5.36
2016-12-18T04:49:32.674Z,5.28
2016-12-18T04:50:32.662Z,5.35
2016-12-18T04:51:32.653Z,5.36
2016-12-18T04:52:32.640Z,5.42
2016-12-18T04:53:32.628Z,5.38
2016-12-18T04:54:32.618Z,5.45
2016-12-18T04:55:32.602Z,5.45
2016-12-18T04:56:32.588Z,5.45
2016-12-18T04:57:32.575Z,5.42
2016-12-18T04:58:32.571Z,5.45
2016-12-18T04:59:32.556Z,5.46
2016-12-18T05:00:32.539Z,5.53
2016-12-18T05:01:32.530Z,5.57
2016-12-18T05:02:32.517Z,5.53
2016-12-18T05:03:32.501Z,5.53
2016-12-18T05:04:32.494Z,5.48
2016-12-18T05:05:32.479Z,5.51
2016-12-18T05:06:32.466Z,5.48
2016-12-18T05:07:32.460Z,5.56
2016-12-18T05:08:32.442Z,5.46
2016-12-18T05:09:32.431Z,5.46
2016-12-18T05:10:32.423Z,5.46
2016-12-18T05:11:32.413Z,5.45
2016-12-18T05:12:32.397Z,5.53
2016-12-18T05:13:32.385Z,5.49
2016-12-18T05:14:32.370Z,5.56
2016-12-18T05:15:32.361Z,5.46
2016-12-18T05:16:32.346Z,5.45
2016-12-18T05:17:32.335Z,5.45
2016-12-18T05:18:32.326Z,5.56
2016-12-18T05:19:32.320Z,5.58
2016-12-18T05:20:32.301Z,5.48
2016-12-18T05:21:32.288Z,5.53
2016-12-18T05:22:32.276Z,5.51
2016-12-18T05:23:32.264Z,5.51
2016-12-18T05:24:32.258Z,5.57
2016-12-18T05:25:32.243Z,5.54
2016-12-18T05:26:32.227Z,5.57
2016-12-18T05:27:32.221Z,5.56
2016-12-18T05:28:32.201Z,5.61
2016-12-18T05:29:32.191Z,5.6
2016-12-18T05:30:32.181Z,5.61
2016-12-18T05:31:32.170Z,5.54
2016-12-18T05:32:32.161Z,5.58
2016-12-18T05:33:32.146Z,5.61
2016-12-18T05:34:32.132Z,5.57
2016-12-18T05:35:32.119Z,5.64
2016-12-18T05:36:32.109Z,5.54
2016-12-18T05:37:32.095Z,5.63
2016-12-18T05:38:32.086Z,5.54
2016-12-18T05:39:32.072Z,5.56
2016-12-18T05:40:32.058Z,5.58
2016-12-18T05:41:32.048Z,5.53
2016-12-18T05:42:32.078Z,5.63
2016-12-18T05:43:32.028Z,5.57
2016-12-18T05:44:32.015Z,5.64
2016-12-18T05:45:32.002Z,5.63
2016-12-18T05:46:31.989Z,5.56
2016-12-18T05:47:31.975Z,5.49
2016-12-18T05:48:31.966Z,5.58
2016-12-18T05:49:31.955Z,5.58
2016-12-18T05:50:31.942Z,5.63
2016-12-18T05:51:31.968Z,5.6
2016-12-18T05:52:31.950Z,5.45
2016-12-18T05:53:31.904Z,5.53
2016-12-18T05:54:31.897Z,5.57
2016-12-18T05:55:31.881Z,5.6
2016-12-18T05:56:31.868Z,5.56
2016-12-18T05:57:31.883Z,5.63
2016-12-18T05:58:31.847Z,5.57
2016-12-18T05:59:31.836Z,5.58
2016-12-18T06:00:31.821Z,5.56
2016-12-18T06:01:31.810Z,5.71
2016-12-18T06:02:31.797Z,5.65
2016-12-18T06:03:31.784Z,5.61
2016-12-18T06:04:31.772Z,5.67
2016-12-18T06:05:31.763Z,5.63
2016-12-18T06:06:31.751Z,5.72
2016-12-18T06:07:31.736Z,5.83
2016-12-18T06:08:31.726Z,5.79
2016-12-18T06:09:31.713Z,5.86
2016-12-18T06:10:31.706Z,5.83
2016-12-18T06:11:31.691Z,5.83
2016-12-18T06:12:31.683Z,5.85
2016-12-18T06:13:31.665Z,5.83
2016-12-18T06:14:31.657Z,5.79
2016-12-18T06:15:31.643Z,5.89
2016-12-18T06:16:31.635Z,5.89
2016-12-18T06:17:31.619Z,5.9
2016-12-18T06:18:31.609Z,5.93
2016-12-18T06:19:31.596Z,5.93
2016-12-18T06:20:31.584Z,5.93
2016-12-18T06:21:31.572Z,5.97
2016-12-18T06:22:31.562Z,5.91
2016-12-18T06:23:31.547Z,5.96
2016-12-18T06:24:31.536Z,5.99
2016-12-18T06:25:31.527Z,5.97
2016-12-18T06:26:31.511Z,5.97
2016-12-18T06:27:31.502Z,6.01
2016-12-18T06:28:31.491Z,5.89
2016-12-18T06:29:31.487Z,5.89
2016-12-18T06:30:31.467Z,5.93
2016-12-18T06:31:31.454Z,5.93
2016-12-18T06:32:31.475Z,5.91
2016-12-18T06:33:31.465Z,5.93
2016-12-18T06:34:31.422Z,5.96
2016-12-18T06:35:31.408Z,5.96
2016-12-18T06:36:31.427Z,5.94
2016-12-18T06:37:31.385Z,5.97
2016-12-18T06:38:31.403Z,5.94
2016-12-18T06:39:31.362Z,5.94
2016-12-18T06:40:31.352Z,6.03
2016-12-18T06:41:31.338Z,6.04
2016-12-18T06:42:31.333Z,6.08
2016-12-18T06:43:31.314Z,6.09
2016-12-18T06:44:31.308Z,6.06
2016-12-18T06:45:31.291Z,6.04
2016-12-18T06:46:31.283Z,6.04
2016-12-18T06:47:31.270Z,6.08
2016-12-18T06:48:31.261Z,6.18
2016-12-18T06:49:31.245Z,6.12
2016-12-18T06:50:31.267Z,6.11
2016-12-18T06:51:31.220Z,6.08
2016-12-18T06:52:31.209Z,6.08
2016-12-18T06:53:31.198Z,6.08
2016-12-18T06:54:31.186Z,6.14
2016-12-18T06:55:31.175Z,5.97
2016-12-18T06:56:31.163Z,6.15
2016-12-18T06:57:31.471Z,6.12
2016-12-18T06:58:31.141Z,6.19
2016-12-18T06:59:31.130Z,6.17
2016-12-18T07:00:31.117Z,6.18
2016-12-18T07:01:31.109Z,6.19
2016-12-18T07:02:31.093Z,6.21
2016-12-18T07:03:31.082Z,6.21
2016-12-18T07:04:31.071Z,6.22
2016-12-18T07:05:31.067Z,6.28
2016-12-18T07:06:31.051Z,6.21
2016-12-18T07:07:31.037Z,6.28
2016-12-18T07:08:31.024Z,6.28
2016-12-18T07:09:31.015Z,6.25
2016-12-18T07:10:31.003Z,6.21
2016-12-18T07:11:30.991Z,6.17
2016-12-18T07:12:30.979Z,6.31
2016-12-18T07:13:30.966Z,6.22
2016-12-18T07:14:30.955Z,6.3
2016-12-18T07:15:30.943Z,6.21
2016-12-18T07:16:30.933Z,6.19
2016-12-18T07:17:30.924Z,6.3
2016-12-18T07:18:30.914Z,6.27
2016-12-18T07:19:30.901Z,6.28
2016-12-18T07:20:30.888Z,6.31
2016-12-18T07:21:30.876Z,6.3
2016-12-18T07:22:30.863Z,6.33
2016-12-18T07:23:30.853Z,6.34
2016-12-18T07:24:30.844Z,6.28
2016-12-18T07:25:30.830Z,6.38
2016-12-18T07:26:30.824Z,6.38
2016-12-18T07:27:30.809Z,6.33
2016-12-18T07:28:30.795Z,6.28
2016-12-18T07:29:30.783Z,6.43
2016-12-18T07:30:30.773Z,6.34
2016-12-18T07:31:30.760Z,6.36
2016-12-18T07:32:30.753Z,6.37
2016-12-18T07:33:30.736Z,6.4
2016-12-18T07:34:30.727Z,6.41
2016-12-18T07:35:30.720Z,6.46
2016-12-18T07:36:30.701Z,6.36
2016-12-18T07:37:30.695Z,6.36
2016-12-18T07:38:30.683Z,6.31
2016-12-18T07:39:30.675Z,6.3
2016-12-18T07:40:30.658Z,6.37
2016-12-18T07:41:30.648Z,6.37
2016-12-18T07:42:30.635Z,6.34
2016-12-18T07:43:30.625Z,6.33
2016-12-18T07:44:30.614Z,6.41
2016-12-18T07:45:30.604Z,6.38
2016-12-18T07:46:30.590Z,6.41
2016-12-18T07:47:30.579Z,6.4
2016-12-18T07:48:30.567Z,6.4
2016-12-18T07:49:30.555Z,6.55
2016-12-18T07:50:30.545Z,6.52
2016-12-18T07:51:30.532Z,6.51
2016-12-18T07:52:30.522Z,6.54
2016-12-18T07:53:30.542Z,6.49
2016-12-18T07:54:30.499Z,6.49
2016-12-18T07:55:30.488Z,6.46
2016-12-18T07:56:30.480Z,6.49
2016-12-18T07:57:30.468Z,6.52
2016-12-18T07:58:30.455Z,6.58
2016-12-18T07:59:30.443Z,6.55
2016-12-18T08:00:30.432Z,6.52
2016-12-18T08:01:30.421Z,6.58
2016-12-18T08:02:30.407Z,6.55
2016-12-18T08:03:30.397Z,6.64
2016-12-18T08:04:30.385Z,6.62
2016-12-18T08:05:30.381Z,6.59
2016-12-18T08:06:30.363Z,6.59
2016-12-18T08:07:30.352Z,6.56
2016-12-18T08:08:30.341Z,6.62
2016-12-18T08:09:30.329Z,6.64
2016-12-18T08:10:30.318Z,6.71
2016-12-18T08:11:30.306Z,6.62
2016-12-18T08:12:30.296Z,6.56
2016-12-18T08:13:30.284Z,6.66
2016-12-18T08:14:30.276Z,6.69
2016-12-18T08:15:30.573Z,6.64
2016-12-18T08:16:30.253Z,6.69
2016-12-18T08:17:30.239Z,6.66
2016-12-18T08:18:30.229Z,6.69
2016-12-18T08:19:30.219Z,6.69
2016-12-18T08:20:30.210Z,6.71
2016-12-18T08:21:30.198Z,6.66
2016-12-18T08:22:30.185Z,6.76
2016-12-18T08:23:30.173Z,6.74
2016-12-18T08:24:30.479Z,6.81
2016-12-18T08:25:30.151Z,6.88
2016-12-18T08:26:30.147Z,6.88
2016-12-18T08:27:30.129Z,6.81
2016-12-18T08:28:30.117Z,6.81
2016-12-18T08:29:30.107Z,6.89
2016-12-18T08:30:30.096Z,6.79
2016-12-18T08:31:30.087Z,6.92
2016-12-18T08:32:30.076Z,6.97
2016-12-18T08:33:30.064Z,6.99
2016-12-18T08:34:30.055Z,6.95
2016-12-18T08:35:30.040Z,6.95
2016-12-18T08:36:30.032Z,6.94
2016-12-18T08:37:30.021Z,6.94
2016-12-18T08:38:30.009Z,6.94
2016-12-18T08:39:29.999Z,6.98
2016-12-18T08:40:30.294Z,6.99
2016-12-18T08:41:29.975Z,6.95
2016-12-18T08:42:29.966Z,6.97
2016-12-18T08:43:29.956Z,6.95
2016-12-18T08:44:29.946Z,6.94
2016-12-18T08:45:29.935Z,6.97
2016-12-18T08:46:30.227Z,7.03
2016-12-18T08:47:30.215Z,7.06
2016-12-18T08:48:29.903Z,7.1
2016-12-18T08:49:30.196Z,7.07
2016-12-18T08:50:29.881Z,7.1
2016-12-18T08:51:29.899Z,7.17
2016-12-18T08:52:29.862Z,7.13
2016-12-18T08:53:29.847Z,7.17
2016-12-18T08:54:29.841Z,7.16
2016-12-18T08:55:29.823Z,7.07
2016-12-18T08:56:29.813Z,7.1
2016-12-18T08:57:29.835Z,7.07
2016-12-18T08:58:29.795Z,7.06
2016-12-18T08:59:29.784Z,7.16
2016-12-18T09:00:29.770Z,7.07
2016-12-18T09:01:29.758Z,7.12
2016-12-18T09:02:30.057Z,7.2
2016-12-18T09:03:29.744Z,7.17
2016-12-18T09:04:29.726Z,7.27
2016-12-18T09:05:29.717Z,7.27
2016-12-18T09:06:29.707Z,7.28
2016-12-18T09:07:29.696Z,7.25
2016-12-18T09:08:29.684Z,7.3
2016-12-18T09:09:29.674Z,7.24
2016-12-18T09:10:29.668Z,7.28
2016-12-18T09:11:29.655Z,7.27
2016-12-18T09:12:29.647Z,7.31
2016-12-18T09:13:29.633Z,7.27
2016-12-18T09:14:29.624Z,7.24
2016-12-18T09:15:29.615Z,7.32
2016-12-18T09:16:29.602Z,7.35
2016-12-18T09:17:29.589Z,7.32
2016-12-18T09:18:29.582Z,7.32
2016-12-18T09:19:29.570Z,7.28
2016-12-18T09:20:29.558Z,7.3
2016-12-18T09:21:29.548Z,7.3
2016-12-18T09:22:29.536Z,7.37
2016-12-18T09:23:29.528Z,7.3
2016-12-18T09:24:29.518Z,7.32
2016-12-18T09:25:29.508Z,7.35
2016-12-18T09:26:29.500Z,7.3
2016-12-18T09:27:29.486Z,7.31
2016-12-18T09:28:29.478Z,7.31
2016-12-18T09:29:29.467Z,7.28
2016-12-18T09:30:29.453Z,7.34
2016-12-18T09:31:29.448Z,7.27
2016-12-18T09:32:29.459Z,7.4
2016-12-18T09:33:29.425Z,7.34
2016-12-18T09:34:29.416Z,7.42
2016-12-18T09:35:29.402Z,7.42
2016-12-18T09:36:29.420Z,7.43
2016-12-18T09:37:29.380Z,7.45
2016-12-18T09:38:29.372Z,7.4
2016-12-18T09:39:29.362Z,7.5
2016-12-18T09:40:29.353Z,7.61
2016-12-18T09:41:29.340Z,7.48
2016-12-18T09:42:29.335Z,7.6
2016-12-18T09:43:29.323Z,7.6
2016-12-18T09:44:29.309Z,7.53
2016-12-18T09:45:29.602Z,7.49
2016-12-18T09:46:29.291Z,7.49
2016-12-18T09:47:29.277Z,7.52
2016-12-18T09:48:29.266Z,7.57
2016-12-18T09:49:29.263Z,7.57
2016-12-18T09:50:29.250Z,7.58
2016-12-18T09:51:29.238Z,7.57
2016-12-18T09:52:29.228Z,7.53
2016-12-18T09:53:29.218Z,7.57
2016-12-18T09:54:29.207Z,7.58
2016-12-18T09:55:29.196Z,7.58
2016-12-18T09:56:29.190Z,7.67
2016-12-18T09:57:29.176Z,7.68
2016-12-18T09:58:29.167Z,7.71
2016-12-18T09:59:29.159Z,7.75
2016-12-18T10:00:29.149Z,7.77
2016-12-18T10:01:29.138Z,7.75
2016-12-18T10:02:29.127Z,7.74
2016-12-18T10:03:29.117Z,7.83
2016-12-18T10:04:29.110Z,7.75
2016-12-18T10:05:29.114Z,7.69
2016-12-18T10:06:29.083Z,7.71
2016-12-18T10:07:29.076Z,7.72
2016-12-18T10:08:29.065Z,7.75
2016-12-18T10:09:29.054Z,7.72
2016-12-18T10:10:29.043Z,7.85
2016-12-18T10:11:29.034Z,7.79
2016-12-18T10:12:29.028Z,7.8
2016-12-18T10:13:29.014Z,7.77
2016-12-18T10:14:29.003Z,7.79
2016-12-18T10:15:28.993Z,7.79
2016-12-18T10:16:28.983Z,7.75
2016-12-18T10:17:28.975Z,7.87
2016-12-18T10:18:28.964Z,7.8
2016-12-18T10:19:29.255Z,7.86
2016-12-18T10:20:28.947Z,7.82
2016-12-18T10:21:28.937Z,7.86
2016-12-18T10:22:28.924Z,7.85
2016-12-18T10:23:28.917Z,7.87
2016-12-18T10:24:28.901Z,7.93
2016-12-18T10:25:28.896Z,7.89
2016-12-18T10:26:28.883Z,7.86
2016-12-18T10:27:28.875Z,7.92
2016-12-18T10:28:28.862Z,7.83
2016-12-18T10:29:28.851Z,7.83
2016-12-18T10:30:28.843Z,7.95
2016-12-18T10:31:28.834Z,7.97
2016-12-18T10:32:28.821Z,7.97
2016-12-18T10:33:28.811Z,8.01
2016-12-18T10:34:28.804Z,7.97
2016-12-18T10:35:28.792Z,7.97
2016-12-18T10:36:28.782Z,8
2016-12-18T10:37:28.773Z,7.93
2016-12-18T10:38:28.762Z,8
2016-12-18T10:39:28.755Z,8.08
2016-12-18T10:40:28.745Z,8.01
2016-12-18T10:41:28.732Z,8.02
2016-12-18T10:42:28.725Z,8
2016-12-18T10:43:28.712Z,8.05
2016-12-18T10:44:28.702Z,8.1
2016-12-18T10:45:28.694Z,8.18
2016-12-18T10:46:28.685Z,8.22
2016-12-18T10:47:28.674Z,8.18
2016-12-18T10:48:28.666Z,8.29
2016-12-18T10:49:28.654Z,8.28
2016-12-18T10:50:28.640Z,8.29
2016-12-18T10:51:28.631Z,8.37
2016-12-18T10:52:28.627Z,8.34
2016-12-18T10:53:28.615Z,8.43
2016-12-18T10:54:28.603Z,8.34
2016-12-18T10:55:28.596Z,8.45
2016-12-18T10:56:28.581Z,8.43
2016-12-18T10:57:28.574Z,8.48
2016-12-18T10:58:28.562Z,8.37
2016-12-18T10:59:28.553Z,8.37
2016-12-18T11:00:28.544Z,8.44
2016-12-18T11:01:28.538Z,8.52
2016-12-18T11:02:28.526Z,8.48
2016-12-18T11:03:28.522Z,8.47
2016-12-18T11:04:28.512Z,8.43
2016-12-18T11:05:28.493Z,8.45
2016-12-18T11:06:28.796Z,8.43
2016-12-18T11:07:28.481Z,8.52
2016-12-18T11:08:28.464Z,8.47
2016-12-18T11:09:28.455Z,8.52
2016-12-18T11:10:28.449Z,8.47
2016-12-18T11:11:28.437Z,8.45
2016-12-18T11:12:28.425Z,8.36
2016-12-18T11:13:28.419Z,8.34
2016-12-18T11:14:28.409Z,8.37
2016-12-18T11:15:28.400Z,8.36
2016-12-18T11:16:28.390Z,8.37
2016-12-18T11:17:28.381Z,8.36
2016-12-18T11:18:28.369Z,8.36
2016-12-18T11:19:28.360Z,8.38
2016-12-18T11:20:28.356Z,8.33
2016-12-18T11:21:28.341Z,8.36
2016-12-18T11:22:28.337Z,8.36
2016-12-18T11:23:28.323Z,8.34
2016-12-18T11:24:28.310Z,8.38
2016-12-18T11:25:28.342Z,8.34
2016-12-18T11:26:28.292Z,8.37
2016-12-18T11:27:28.281Z,8.3
2016-12-18T11:28:28.274Z,8.36
2016-12-18T11:29:28.262Z,8.37
2016-12-18T11:30:28.252Z,8.37
2016-12-18T11:31:28.245Z,8.41
2016-12-18T11:32:28.536Z,8.37
2016-12-18T11:33:28.224Z,8.36
2016-12-18T11:34:28.219Z,8.47
2016-12-18T11:35:28.209Z,8.4
2016-12-18T11:36:28.198Z,8.44
2016-12-18T11:37:28.194Z,8.43
2016-12-18T11:38:28.176Z,8.43
2016-12-18T11:39:28.166Z,8.41
2016-12-18T11:40:28.154Z,8.47
2016-12-18T11:41:28.152Z,8.4
2016-12-18T11:42:28.140Z,8.37
2016-12-18T11:43:28.134Z,8.53
2016-12-18T11:44:28.120Z,8.53
2016-12-18T11:45:28.109Z,8.48
2016-12-18T11:46:28.101Z,8.52
2016-12-18T11:47:28.090Z,8.47
2016-12-18T11:48:28.079Z,8.5
2016-12-18T11:49:28.071Z,8.5
2016-12-18T11:50:28.060Z,8.48
2016-12-18T11:51:28.051Z,8.45
2016-12-18T11:52:28.042Z,8.5
2016-12-18T11:53:28.035Z,8.5
2016-12-18T11:54:28.022Z,8.5
2016-12-18T11:55:28.015Z,8.52
2016-12-18T11:56:28.003Z,8.5
2016-12-18T11:57:27.997Z,8.43
2016-12-18T11:58:27.986Z,8.43
2016-12-18T11:59:28.002Z,8.44
2016-12-18T12:00:27.963Z,8.45
2016-12-18T12:01:27.957Z,8.43
2016-12-18T12:02:28.262Z,8.4
2016-12-18T12:03:27.935Z,8.45
2016-12-18T12:04:27.927Z,8.47
2016-12-18T12:05:27.917Z,8.45
2016-12-18T12:06:27.908Z,8.44
2016-12-18T12:07:28.202Z,8.53
2016-12-18T12:08:27.888Z,8.47
2016-12-18T12:09:27.880Z,8.47
2016-12-18T12:10:27.868Z,8.41
2016-12-18T12:11:27.864Z,8.41
2016-12-18T12:12:27.852Z,8.48
2016-12-18T12:13:27.843Z,8.43
2016-12-18T12:14:27.830Z,8.43
2016-12-18T12:15:27.849Z,8.37
2016-12-18T12:16:27.811Z,8.48
2016-12-18T12:17:27.804Z,8.44
2016-12-18T12:18:27.795Z,8.45
2016-12-18T12:19:27.783Z,8.41
2016-12-18T12:20:27.773Z,8.43
2016-12-18T12:21:27.767Z,8.4
2016-12-18T12:22:27.762Z,8.45
2016-12-18T12:23:27.751Z,8.45
2016-12-18T12:24:27.735Z,8.38
2016-12-18T12:25:27.724Z,8.45
2016-12-18T12:26:28.018Z,8.44
2016-12-18T12:27:27.705Z,8.41
2016-12-18T12:28:27.694Z,8.47
2016-12-18T12:29:27.691Z,8.45
2016-12-18T12:30:27.678Z,8.43
2016-12-18T12:31:27.669Z,8.47
2016-12-18T12:32:27.657Z,8.37
2016-12-18T12:33:27.647Z,8.52
2016-12-18T12:34:27.641Z,8.41
2016-12-18T12:35:27.629Z,8.47
2016-12-18T12:36:27.621Z,8.58
2016-12-18T12:37:27.611Z,8.44
2016-12-18T12:38:27.611Z,8.45
2016-12-18T12:39:27.591Z,8.47
2016-12-18T12:40:27.579Z,8.43
2016-12-18T12:41:27.570Z,8.4
2016-12-18T12:42:27.558Z,8.41
2016-12-18T12:43:27.554Z,8.52
2016-12-18T12:44:27.541Z,8.43
2016-12-18T12:45:27.533Z,8.48
2016-12-18T12:46:27.522Z,8.47
2016-12-18T12:47:27.511Z,8.45
2016-12-18T12:48:27.500Z,8.45
2016-12-18T12:49:27.495Z,8.52
2016-12-18T12:50:27.480Z,8.4
2016-12-18T12:51:27.478Z,8.47
2016-12-18T12:52:27.466Z,8.45
2016-12-18T12:53:27.454Z,8.45
2016-12-18T12:54:27.451Z,8.47
2016-12-18T12:55:27.436Z,8.41
2016-12-18T12:56:27.428Z,8.48
2016-12-18T12:57:27.413Z,8.53
2016-12-18T12:58:27.407Z,8.44
2016-12-18T12:59:27.408Z,8.45
2016-12-18T13:00:27.388Z,8.5
2016-12-18T13:01:27.377Z,8.44
2016-12-18T13:02:27.380Z,8.52
2016-12-18T13:03:27.360Z,8.4
2016-12-18T13:04:27.351Z,8.34
2016-12-18T13:05:27.341Z,8.41
2016-12-18T13:06:27.328Z,8.43
2016-12-18T13:07:27.321Z,8.44
2016-12-18T13:08:27.315Z,8.34
2016-12-18T13:09:27.304Z,8.37
2016-12-18T13:10:27.290Z,8.41
2016-12-18T13:11:27.282Z,8.45
2016-12-18T13:12:27.270Z,8.43
2016-12-18T13:13:27.264Z,8.45
2016-12-18T13:14:27.557Z,8.43
2016-12-18T13:15:27.241Z,8.52
2016-12-18T13:16:27.235Z,8.47
2016-12-18T13:17:27.221Z,8.5
2016-12-18T13:18:27.213Z,8.45
2016-12-18T13:19:27.205Z,8.4
2016-12-18T13:20:27.191Z,8.48
2016-12-18T13:21:27.184Z,8.4